sensor_id;sensor_type;location;lat;lon;timestamp;P1;durP1;ratioP1;P2;durP2;ratioP2
32399;SDS011;45045;45.440;9.178;2023-02-16T00:01:56;87.05;;;46.50;;
32399;SDS011;45045;45.440;9.178;2023-02-16T00:04:29;97.00;;;49.35;;
32399;SDS011;45045;45.440;9.178;2023-02-16T00:06:55;88.25;;;48.10;;
32399;SDS011;45045;45.440;9.178;2023-02-16T00:09:22;85.88;;;47.22;;
32399;SDS011;45045;45.440;9.178;2023-02-16T00:11:48;81.22;;;46.33;;
32399;SDS011;45045;45.440;9.178;2023-02-16T00:14:34;81.38;;;46.58;;
32399;SDS011;45045;45.440;9.178;2023-02-16T00:17:01;85.18;;;48.05;;
32399;SDS011;45045;45.440;9.178;2023-02-16T00:19:33;82.10;;;46.10;;
32399;SDS011;45045;45.440;9.178;2023-02-16T00:22:03;80.38;;;46.13;;
32399;SDS011;45045;45.440;9.178;2023-02-16T00:24:30;84.60;;;46.22;;
32399;SDS011;45045;45.440;9.178;2023-02-16T00:26:56;74.32;;;45.20;;
32399;SDS011;45045;45.440;9.178;2023-02-16T00:29:35;87.50;;;47.30;;
32399;SDS011;45045;45.440;9.178;2023-02-16T00:32:02;92.45;;;48.72;;
32399;SDS011;45045;45.440;9.178;2023-02-16T00:36:58;84.57;;;45.92;;
32399;SDS011;45045;45.440;9.178;2023-02-16T00:39:26;79.05;;;45.33;;
32399;SDS011;45045;45.440;9.178;2023-02-16T00:41:56;84.30;;;46.47;;
32399;SDS011;45045;45.440;9.178;2023-02-16T00:44:41;81.18;;;45.78;;
32399;SDS011;45045;45.440;9.178;2023-02-16T00:47:19;79.97;;;45.90;;
32399;SDS011;45045;45.440;9.178;2023-02-16T00:50:03;80.72;;;45.47;;
32399;SDS011;45045;45.440;9.178;2023-02-16T00:52:40;86.22;;;46.13;;
32399;SDS011;45045;45.440;9.178;2023-02-16T00:55:17;81.97;;;46.00;;
32399;SDS011;45045;45.440;9.178;2023-02-16T00:57:45;84.05;;;47.08;;
32399;SDS011;45045;45.440;9.178;2023-02-16T01:02:43;87.07;;;46.85;;
32399;SDS011;45045;45.440;9.178;2023-02-16T01:05:10;81.50;;;45.28;;
32399;SDS011;45045;45.440;9.178;2023-02-16T01:07:36;81.82;;;45.70;;
32399;SDS011;45045;45.440;9.178;2023-02-16T01:10:20;80.35;;;45.92;;
32399;SDS011;45045;45.440;9.178;2023-02-16T01:13:05;85.63;;;46.85;;
32399;SDS011;45045;45.440;9.178;2023-02-16T01:15:31;83.45;;;46.25;;
32399;SDS011;45045;45.440;9.178;2023-02-16T01:17:57;84.85;;;47.60;;
32399;SDS011;45045;45.440;9.178;2023-02-16T01:20:23;83.38;;;46.53;;
32399;SDS011;45045;45.440;9.178;2023-02-16T01:22:50;86.05;;;46.70;;
32399;SDS011;45045;45.440;9.178;2023-02-16T01:25:15;76.28;;;46.20;;
32399;SDS011;45045;45.440;9.178;2023-02-16T01:27:42;81.88;;;46.20;;
32399;SDS011;45045;45.440;9.178;2023-02-16T01:30:12;78.07;;;46.33;;
32399;SDS011;45045;45.440;9.178;2023-02-16T01:35:06;81.22;;;45.28;;
32399;SDS011;45045;45.440;9.178;2023-02-16T01:37:31;84.13;;;45.90;;
32399;SDS011;45045;45.440;9.178;2023-02-16T01:39:57;83.38;;;46.13;;
32399;SDS011;45045;45.440;9.178;2023-02-16T01:45:16;86.13;;;46.35;;
32399;SDS011;45045;45.440;9.178;2023-02-16T01:47:53;83.07;;;47.65;;
32399;SDS011;45045;45.440;9.178;2023-02-16T01:50:23;79.40;;;46.63;;
32399;SDS011;45045;45.440;9.178;2023-02-16T01:55:29;86.70;;;47.28;;
32399;SDS011;45045;45.440;9.178;2023-02-16T01:58:34;83.75;;;46.67;;
32399;SDS011;45045;45.440;9.178;2023-02-16T02:03:34;75.60;;;45.58;;
32399;SDS011;45045;45.440;9.178;2023-02-16T02:06:24;78.47;;;44.75;;
32399;SDS011;45045;45.440;9.178;2023-02-16T02:09:01;80.25;;;43.35;;
32399;SDS011;45045;45.440;9.178;2023-02-16T02:11:33;79.65;;;44.80;;
32399;SDS011;45045;45.440;9.178;2023-02-16T02:14:05;75.03;;;43.78;;
32399;SDS011;45045;45.440;9.178;2023-02-16T02:16:31;75.28;;;45.35;;
32399;SDS011;45045;45.440;9.178;2023-02-16T02:18:57;78.13;;;46.03;;
32399;SDS011;45045;45.440;9.178;2023-02-16T02:27:57;79.80;;;45.75;;
32399;SDS011;45045;45.440;9.178;2023-02-16T02:33:02;83.88;;;47.60;;
32399;SDS011;45045;45.440;9.178;2023-02-16T02:41:24;82.15;;;46.50;;
32399;SDS011;45045;45.440;9.178;2023-02-16T02:44:28;78.93;;;45.45;;
32399;SDS011;45045;45.440;9.178;2023-02-16T02:46:54;82.30;;;47.83;;
32399;SDS011;45045;45.440;9.178;2023-02-16T02:49:20;78.95;;;47.47;;
32399;SDS011;45045;45.440;9.178;2023-02-16T02:51:46;84.35;;;46.30;;
32399;SDS011;45045;45.440;9.178;2023-02-16T02:54:21;83.07;;;46.20;;
32399;SDS011;45045;45.440;9.178;2023-02-16T02:57:11;83.60;;;47.33;;
32399;SDS011;45045;45.440;9.178;2023-02-16T03:00:18;76.10;;;45.63;;
32399;SDS011;45045;45.440;9.178;2023-02-16T03:05:37;79.57;;;46.20;;
32399;SDS011;45045;45.440;9.178;2023-02-16T03:08:09;82.70;;;46.42;;
32399;SDS011;45045;45.440;9.178;2023-02-16T03:10:38;78.30;;;46.50;;
32399;SDS011;45045;45.440;9.178;2023-02-16T03:13:30;79.63;;;46.72;;
32399;SDS011;45045;45.440;9.178;2023-02-16T03:16:01;88.68;;;48.22;;
32399;SDS011;45045;45.440;9.178;2023-02-16T03:18:34;80.78;;;47.67;;
32399;SDS011;45045;45.440;9.178;2023-02-16T03:21:20;80.93;;;46.78;;
32399;SDS011;45045;45.440;9.178;2023-02-16T03:24:07;80.50;;;45.00;;
32399;SDS011;45045;45.440;9.178;2023-02-16T03:26:56;78.80;;;45.60;;
32399;SDS011;45045;45.440;9.178;2023-02-16T03:29:41;77.97;;;45.45;;
32399;SDS011;45045;45.440;9.178;2023-02-16T03:32:09;75.55;;;45.70;;
32399;SDS011;45045;45.440;9.178;2023-02-16T03:34:36;76.47;;;45.63;;
32399;SDS011;45045;45.440;9.178;2023-02-16T03:37:02;72.95;;;45.80;;
32399;SDS011;45045;45.440;9.178;2023-02-16T03:39:29;76.40;;;45.28;;
32399;SDS011;45045;45.440;9.178;2023-02-16T03:41:56;80.65;;;46.25;;
32399;SDS011;45045;45.440;9.178;2023-02-16T03:44:22;79.32;;;47.15;;
32399;SDS011;45045;45.440;9.178;2023-02-16T03:46:49;78.30;;;46.53;;
32399;SDS011;45045;45.440;9.178;2023-02-16T03:49:16;74.07;;;44.67;;
32399;SDS011;45045;45.440;9.178;2023-02-16T03:51:42;76.47;;;45.78;;
32399;SDS011;45045;45.440;9.178;2023-02-16T03:54:09;84.45;;;44.95;;
32399;SDS011;45045;45.440;9.178;2023-02-16T03:56:35;78.85;;;45.72;;
32399;SDS011;45045;45.440;9.178;2023-02-16T03:59:01;80.32;;;47.22;;
32399;SDS011;45045;45.440;9.178;2023-02-16T04:01:26;79.60;;;45.60;;
32399;SDS011;45045;45.440;9.178;2023-02-16T04:03:52;77.13;;;46.38;;
32399;SDS011;45045;45.440;9.178;2023-02-16T04:06:18;78.65;;;47.45;;
32399;SDS011;45045;45.440;9.178;2023-02-16T04:08:43;77.32;;;48.75;;
32399;SDS011;45045;45.440;9.178;2023-02-16T04:11:09;82.25;;;48.90;;
32399;SDS011;45045;45.440;9.178;2023-02-16T04:13:53;81.28;;;47.58;;
32399;SDS011;45045;45.440;9.178;2023-02-16T04:16:19;79.47;;;47.78;;
32399;SDS011;45045;45.440;9.178;2023-02-16T04:18:44;76.97;;;47.53;;
32399;SDS011;45045;45.440;9.178;2023-02-16T04:21:10;82.60;;;47.72;;
32399;SDS011;45045;45.440;9.178;2023-02-16T04:23:35;80.80;;;46.38;;
32399;SDS011;45045;45.440;9.178;2023-02-16T04:26:01;77.57;;;47.35;;
32399;SDS011;45045;45.440;9.178;2023-02-16T04:28:27;83.43;;;48.30;;
32399;SDS011;45045;45.440;9.178;2023-02-16T04:30:53;81.47;;;47.17;;
32399;SDS011;45045;45.440;9.178;2023-02-16T04:33:18;78.68;;;46.63;;
32399;SDS011;45045;45.440;9.178;2023-02-16T04:35:44;76.32;;;46.47;;
32399;SDS011;45045;45.440;9.178;2023-02-16T04:38:09;80.82;;;48.33;;
32399;SDS011;45045;45.440;9.178;2023-02-16T04:40:35;80.20;;;47.65;;
32399;SDS011;45045;45.440;9.178;2023-02-16T04:43:01;84.85;;;49.30;;
32399;SDS011;45045;45.440;9.178;2023-02-16T04:45:26;83.20;;;49.10;;
32399;SDS011;45045;45.440;9.178;2023-02-16T04:47:52;86.57;;;50.22;;
32399;SDS011;45045;45.440;9.178;2023-02-16T04:50:17;80.68;;;50.20;;
32399;SDS011;45045;45.440;9.178;2023-02-16T04:52:43;77.03;;;47.70;;
32399;SDS011;45045;45.440;9.178;2023-02-16T04:55:09;83.28;;;49.13;;
32399;SDS011;45045;45.440;9.178;2023-02-16T04:57:35;79.63;;;48.90;;
32399;SDS011;45045;45.440;9.178;2023-02-16T05:00:05;80.63;;;49.25;;
32399;SDS011;45045;45.440;9.178;2023-02-16T05:02:32;76.68;;;47.95;;
32399;SDS011;45045;45.440;9.178;2023-02-16T05:04:58;79.05;;;46.97;;
32399;SDS011;45045;45.440;9.178;2023-02-16T05:07:23;79.40;;;47.75;;
32399;SDS011;45045;45.440;9.178;2023-02-16T05:09:49;74.63;;;47.47;;
32399;SDS011;45045;45.440;9.178;2023-02-16T05:12:15;74.53;;;47.33;;
32399;SDS011;45045;45.440;9.178;2023-02-16T05:14:59;79.18;;;48.53;;
32399;SDS011;45045;45.440;9.178;2023-02-16T05:17:25;76.72;;;46.35;;
32399;SDS011;45045;45.440;9.178;2023-02-16T05:19:55;81.85;;;46.88;;
32399;SDS011;45045;45.440;9.178;2023-02-16T05:22:23;72.38;;;46.38;;
32399;SDS011;45045;45.440;9.178;2023-02-16T05:24:49;72.30;;;45.58;;
32399;SDS011;45045;45.440;9.178;2023-02-16T05:27:20;73.55;;;45.60;;
32399;SDS011;45045;45.440;9.178;2023-02-16T05:29:50;77.95;;;46.22;;
32399;SDS011;45045;45.440;9.178;2023-02-16T05:32:16;70.45;;;43.60;;
32399;SDS011;45045;45.440;9.178;2023-02-16T05:34:42;64.63;;;43.55;;
32399;SDS011;45045;45.440;9.178;2023-02-16T05:37:09;66.38;;;42.85;;
32399;SDS011;45045;45.440;9.178;2023-02-16T05:39:35;68.28;;;43.50;;
32399;SDS011;45045;45.440;9.178;2023-02-16T05:42:01;62.50;;;41.97;;
32399;SDS011;45045;45.440;9.178;2023-02-16T05:44:27;64.57;;;42.15;;
32399;SDS011;45045;45.440;9.178;2023-02-16T05:46:53;65.78;;;43.58;;
32399;SDS011;45045;45.440;9.178;2023-02-16T05:49:19;62.53;;;40.65;;
32399;SDS011;45045;45.440;9.178;2023-02-16T05:51:45;65.72;;;42.95;;
32399;SDS011;45045;45.440;9.178;2023-02-16T05:54:11;62.53;;;41.00;;
32399;SDS011;45045;45.440;9.178;2023-02-16T05:56:42;66.10;;;42.90;;
32399;SDS011;45045;45.440;9.178;2023-02-16T05:59:12;59.53;;;40.60;;
32399;SDS011;45045;45.440;9.178;2023-02-16T06:01:39;59.63;;;40.05;;
32399;SDS011;45045;45.440;9.178;2023-02-16T06:04:08;57.60;;;39.90;;
32399;SDS011;45045;45.440;9.178;2023-02-16T06:06:36;56.35;;;39.72;;
32399;SDS011;45045;45.440;9.178;2023-02-16T06:09:05;58.53;;;39.08;;
32399;SDS011;45045;45.440;9.178;2023-02-16T06:11:32;61.08;;;40.78;;
32399;SDS011;45045;45.440;9.178;2023-02-16T06:14:02;56.78;;;39.40;;
32399;SDS011;45045;45.440;9.178;2023-02-16T06:16:29;62.88;;;40.05;;
32399;SDS011;45045;45.440;9.178;2023-02-16T06:18:56;61.15;;;39.83;;
32399;SDS011;45045;45.440;9.178;2023-02-16T06:21:23;56.05;;;39.92;;
32399;SDS011;45045;45.440;9.178;2023-02-16T06:23:49;58.20;;;38.85;;
32399;SDS011;45045;45.440;9.178;2023-02-16T06:26:15;66.43;;;41.55;;
32399;SDS011;45045;45.440;9.178;2023-02-16T06:28:41;60.15;;;40.38;;
32399;SDS011;45045;45.440;9.178;2023-02-16T06:31:07;63.03;;;40.47;;
32399;SDS011;45045;45.440;9.178;2023-02-16T06:33:32;60.42;;;39.95;;
32399;SDS011;45045;45.440;9.178;2023-02-16T06:35:58;61.55;;;41.88;;
32399;SDS011;45045;45.440;9.178;2023-02-16T06:38:24;64.40;;;40.17;;
32399;SDS011;45045;45.440;9.178;2023-02-16T06:40:53;62.92;;;40.67;;
32399;SDS011;45045;45.440;9.178;2023-02-16T06:43:19;60.20;;;40.30;;
32399;SDS011;45045;45.440;9.178;2023-02-16T06:45:45;58.00;;;40.38;;
32399;SDS011;45045;45.440;9.178;2023-02-16T06:48:11;60.05;;;41.75;;
32399;SDS011;45045;45.440;9.178;2023-02-16T06:50:37;59.28;;;41.80;;
32399;SDS011;45045;45.440;9.178;2023-02-16T06:53:02;63.05;;;40.22;;
32399;SDS011;45045;45.440;9.178;2023-02-16T06:55:28;57.72;;;40.25;;
32399;SDS011;45045;45.440;9.178;2023-02-16T06:57:58;59.75;;;41.55;;
32399;SDS011;45045;45.440;9.178;2023-02-16T07:00:24;57.17;;;40.70;;
32399;SDS011;45045;45.440;9.178;2023-02-16T07:02:50;62.67;;;40.15;;
32399;SDS011;45045;45.440;9.178;2023-02-16T07:05:15;58.67;;;40.50;;
32399;SDS011;45045;45.440;9.178;2023-02-16T07:07:41;65.32;;;42.55;;
32399;SDS011;45045;45.440;9.178;2023-02-16T07:10:07;59.75;;;39.42;;
32399;SDS011;45045;45.440;9.178;2023-02-16T07:12:33;57.53;;;39.63;;
32399;SDS011;45045;45.440;9.178;2023-02-16T07:14:59;62.88;;;40.35;;
32399;SDS011;45045;45.440;9.178;2023-02-16T07:17:25;55.58;;;39.60;;
32399;SDS011;45045;45.440;9.178;2023-02-16T07:19:50;55.33;;;38.83;;
32399;SDS011;45045;45.440;9.178;2023-02-16T07:22:16;53.08;;;37.70;;
32399;SDS011;45045;45.440;9.178;2023-02-16T07:24:42;56.08;;;38.90;;
32399;SDS011;45045;45.440;9.178;2023-02-16T07:27:08;54.03;;;36.55;;
32399;SDS011;45045;45.440;9.178;2023-02-16T07:29:34;50.72;;;37.38;;
32399;SDS011;45045;45.440;9.178;2023-02-16T07:31:59;52.78;;;36.63;;
32399;SDS011;45045;45.440;9.178;2023-02-16T07:34:27;52.63;;;36.60;;
32399;SDS011;45045;45.440;9.178;2023-02-16T07:36:53;51.58;;;35.92;;
32399;SDS011;45045;45.440;9.178;2023-02-16T07:39:18;51.28;;;35.40;;
32399;SDS011;45045;45.440;9.178;2023-02-16T07:41:44;56.85;;;37.40;;
32399;SDS011;45045;45.440;9.178;2023-02-16T07:44:10;49.97;;;35.08;;
32399;SDS011;45045;45.440;9.178;2023-02-16T07:46:36;54.25;;;35.72;;
32399;SDS011;45045;45.440;9.178;2023-02-16T07:49:02;47.47;;;36.35;;
32399;SDS011;45045;45.440;9.178;2023-02-16T07:51:28;53.28;;;35.03;;
32399;SDS011;45045;45.440;9.178;2023-02-16T07:53:55;50.13;;;34.63;;
32399;SDS011;45045;45.440;9.178;2023-02-16T07:56:25;61.20;;;36.25;;
32399;SDS011;45045;45.440;9.178;2023-02-16T07:58:54;48.90;;;33.90;;
32399;SDS011;45045;45.440;9.178;2023-02-16T08:01:21;48.65;;;34.40;;
32399;SDS011;45045;45.440;9.178;2023-02-16T08:03:47;58.22;;;35.47;;
32399;SDS011;45045;45.440;9.178;2023-02-16T08:06:13;45.63;;;33.70;;
32399;SDS011;45045;45.440;9.178;2023-02-16T08:08:39;47.40;;;33.10;;
32399;SDS011;45045;45.440;9.178;2023-02-16T08:11:18;49.90;;;33.63;;
32399;SDS011;45045;45.440;9.178;2023-02-16T08:13:46;45.63;;;32.42;;
32399;SDS011;45045;45.440;9.178;2023-02-16T08:16:13;43.70;;;32.08;;
32399;SDS011;45045;45.440;9.178;2023-02-16T08:18:42;47.78;;;32.60;;
32399;SDS011;45045;45.440;9.178;2023-02-16T08:21:11;43.25;;;32.80;;
32399;SDS011;45045;45.440;9.178;2023-02-16T08:23:51;46.50;;;31.73;;
32399;SDS011;45045;45.440;9.178;2023-02-16T08:26:19;44.85;;;31.17;;
32399;SDS011;45045;45.440;9.178;2023-02-16T08:28:46;43.90;;;31.27;;
32399;SDS011;45045;45.440;9.178;2023-02-16T08:31:14;47.47;;;31.13;;
32399;SDS011;45045;45.440;9.178;2023-02-16T08:33:43;54.20;;;31.63;;
32399;SDS011;45045;45.440;9.178;2023-02-16T08:36:19;37.17;;;29.63;;
32399;SDS011;45045;45.440;9.178;2023-02-16T08:38:47;37.47;;;28.40;;
32399;SDS011;45045;45.440;9.178;2023-02-16T08:41:17;42.00;;;30.23;;
32399;SDS011;45045;45.440;9.178;2023-02-16T08:43:49;91.88;;;62.63;;
32399;SDS011;45045;45.440;9.178;2023-02-16T08:46:16;61.58;;;43.83;;
32399;SDS011;45045;45.440;9.178;2023-02-16T08:48:48;44.45;;;34.13;;
32399;SDS011;45045;45.440;9.178;2023-02-16T08:51:14;36.13;;;28.48;;
32399;SDS011;45045;45.440;9.178;2023-02-16T08:53:42;36.08;;;25.83;;
32399;SDS011;45045;45.440;9.178;2023-02-16T08:56:08;34.28;;;25.55;;
32399;SDS011;45045;45.440;9.178;2023-02-16T08:58:35;35.30;;;26.65;;
32399;SDS011;45045;45.440;9.178;2023-02-16T09:01:11;36.53;;;26.00;;
32399;SDS011;45045;45.440;9.178;2023-02-16T09:03:39;32.40;;;24.98;;
32399;SDS011;45045;45.440;9.178;2023-02-16T09:06:07;36.13;;;25.77;;
32399;SDS011;45045;45.440;9.178;2023-02-16T09:08:34;32.13;;;24.92;;
32399;SDS011;45045;45.440;9.178;2023-02-16T09:11:04;34.40;;;25.20;;
32399;SDS011;45045;45.440;9.178;2023-02-16T09:13:33;32.45;;;23.35;;
32399;SDS011;45045;45.440;9.178;2023-02-16T09:16:01;34.33;;;23.33;;
32399;SDS011;45045;45.440;9.178;2023-02-16T09:18:31;30.77;;;23.30;;
32399;SDS011;45045;45.440;9.178;2023-02-16T09:20:57;31.58;;;23.50;;
32399;SDS011;45045;45.440;9.178;2023-02-16T09:23:27;29.48;;;21.55;;
32399;SDS011;45045;45.440;9.178;2023-02-16T09:25:53;27.63;;;21.00;;
32399;SDS011;45045;45.440;9.178;2023-02-16T09:28:18;25.73;;;21.58;;
32399;SDS011;45045;45.440;9.178;2023-02-16T09:30:45;29.77;;;21.58;;
32399;SDS011;45045;45.440;9.178;2023-02-16T09:33:11;29.77;;;20.90;;
32399;SDS011;45045;45.440;9.178;2023-02-16T09:35:38;24.25;;;18.52;;
32399;SDS011;45045;45.440;9.178;2023-02-16T09:38:04;25.35;;;18.85;;
32399;SDS011;45045;45.440;9.178;2023-02-16T09:40:31;24.75;;;18.73;;
32399;SDS011;45045;45.440;9.178;2023-02-16T09:43:14;24.48;;;18.05;;
32399;SDS011;45045;45.440;9.178;2023-02-16T09:46:01;23.63;;;17.23;;
32399;SDS011;45045;45.440;9.178;2023-02-16T09:51:02;28.48;;;18.17;;
32399;SDS011;45045;45.440;9.178;2023-02-16T09:53:34;21.70;;;17.35;;
32399;SDS011;45045;45.440;9.178;2023-02-16T09:58:32;21.58;;;17.17;;
32399;SDS011;45045;45.440;9.178;2023-02-16T10:09:22;23.35;;;17.63;;
32399;SDS011;45045;45.440;9.178;2023-02-16T10:11:57;21.42;;;17.10;;
32399;SDS011;45045;45.440;9.178;2023-02-16T10:14:50;23.23;;;17.77;;
32399;SDS011;45045;45.440;9.178;2023-02-16T10:17:22;21.80;;;15.80;;
32399;SDS011;45045;45.440;9.178;2023-02-16T10:22:44;23.40;;;16.65;;
32399;SDS011;45045;45.440;9.178;2023-02-16T10:28:18;23.02;;;16.77;;
32399;SDS011;45045;45.440;9.178;2023-02-16T10:36:28;22.42;;;16.58;;
32399;SDS011;45045;45.440;9.178;2023-02-16T10:39:27;19.30;;;15.25;;
32399;SDS011;45045;45.440;9.178;2023-02-16T10:44:54;19.27;;;15.05;;
32399;SDS011;45045;45.440;9.178;2023-02-16T10:49:55;21.00;;;14.80;;
32399;SDS011;45045;45.440;9.178;2023-02-16T10:52:21;26.83;;;21.30;;
32399;SDS011;45045;45.440;9.178;2023-02-16T10:54:51;19.08;;;15.57;;
32399;SDS011;45045;45.440;9.178;2023-02-16T10:57:26;138.10;;;108.28;;
32399;SDS011;45045;45.440;9.178;2023-02-16T10:59:56;19.25;;;15.10;;
32399;SDS011;45045;45.440;9.178;2023-02-16T11:02:37;16.40;;;14.00;;
32399;SDS011;45045;45.440;9.178;2023-02-16T11:05:28;18.02;;;13.73;;
32399;SDS011;45045;45.440;9.178;2023-02-16T11:07:56;16.73;;;13.35;;
32399;SDS011;45045;45.440;9.178;2023-02-16T11:10:38;19.95;;;14.02;;
32399;SDS011;45045;45.440;9.178;2023-02-16T11:13:04;14.75;;;12.50;;
32399;SDS011;45045;45.440;9.178;2023-02-16T11:15:32;16.27;;;12.75;;
32399;SDS011;45045;45.440;9.178;2023-02-16T11:18:04;16.13;;;12.32;;
32399;SDS011;45045;45.440;9.178;2023-02-16T11:20:33;15.13;;;11.38;;
32399;SDS011;45045;45.440;9.178;2023-02-16T11:23:22;15.07;;;12.63;;
32399;SDS011;45045;45.440;9.178;2023-02-16T11:25:54;17.25;;;12.40;;
32399;SDS011;45045;45.440;9.178;2023-02-16T11:28:28;15.27;;;11.63;;
32399;SDS011;45045;45.440;9.178;2023-02-16T11:30:59;16.58;;;12.10;;
32399;SDS011;45045;45.440;9.178;2023-02-16T11:33:28;15.63;;;11.82;;
32399;SDS011;45045;45.440;9.178;2023-02-16T11:35:55;14.45;;;12.00;;
32399;SDS011;45045;45.440;9.178;2023-02-16T11:38:25;14.63;;;10.80;;
32399;SDS011;45045;45.440;9.178;2023-02-16T11:41:04;14.98;;;11.93;;
32399;SDS011;45045;45.440;9.178;2023-02-16T11:43:31;14.20;;;11.40;;
32399;SDS011;45045;45.440;9.178;2023-02-16T11:46:02;15.85;;;12.65;;
32399;SDS011;45045;45.440;9.178;2023-02-16T11:48:33;15.18;;;12.80;;
32399;SDS011;45045;45.440;9.178;2023-02-16T11:51:01;14.02;;;12.18;;
32399;SDS011;45045;45.440;9.178;2023-02-16T11:53:32;19.70;;;15.32;;
32399;SDS011;45045;45.440;9.178;2023-02-16T11:59:19;17.77;;;12.38;;
32399;SDS011;45045;45.440;9.178;2023-02-16T12:18:33;15.45;;;11.98;;
32399;SDS011;45045;45.440;9.178;2023-02-16T12:23:57;16.70;;;14.15;;
32399;SDS011;45045;45.440;9.178;2023-02-16T12:26:43;17.80;;;12.05;;
32399;SDS011;45045;45.440;9.178;2023-02-16T12:32:06;20.35;;;13.20;;
32399;SDS011;45045;45.440;9.178;2023-02-16T12:37:20;16.45;;;13.18;;
32399;SDS011;45045;45.440;9.178;2023-02-16T12:45:17;27.65;;;15.13;;
32399;SDS011;45045;45.440;9.178;2023-02-16T12:50:23;24.85;;;14.02;;
32399;SDS011;45045;45.440;9.178;2023-02-16T12:53:26;24.20;;;16.10;;
32399;SDS011;45045;45.440;9.178;2023-02-16T12:55:55;29.67;;;19.00;;
32399;SDS011;45045;45.440;9.178;2023-02-16T12:58:39;18.60;;;15.05;;
32399;SDS011;45045;45.440;9.178;2023-02-16T13:01:19;19.73;;;14.43;;
32399;SDS011;45045;45.440;9.178;2023-02-16T13:09:48;18.20;;;13.55;;
32399;SDS011;45045;45.440;9.178;2023-02-16T13:12:29;20.67;;;14.27;;
32399;SDS011;45045;45.440;9.178;2023-02-16T13:20:05;20.60;;;13.00;;
32399;SDS011;45045;45.440;9.178;2023-02-16T13:34:24;17.83;;;14.40;;
32399;SDS011;45045;45.440;9.178;2023-02-16T13:49:04;24.58;;;15.18;;
32399;SDS011;45045;45.440;9.178;2023-02-16T13:51:54;25.27;;;18.35;;
32399;SDS011;45045;45.440;9.178;2023-02-16T13:54:22;19.55;;;14.68;;
32399;SDS011;45045;45.440;9.178;2023-02-16T13:57:03;42.60;;;30.40;;
32399;SDS011;45045;45.440;9.178;2023-02-16T14:03:42;22.80;;;15.70;;
32399;SDS011;45045;45.440;9.178;2023-02-16T14:05:49;24.00;;;15.13;;
32399;SDS011;45045;45.440;9.178;2023-02-16T14:08:22;18.52;;;13.65;;
32399;SDS011;45045;45.440;9.178;2023-02-16T14:11:23;23.05;;;16.27;;
32399;SDS011;45045;45.440;9.178;2023-02-16T14:13:51;18.42;;;14.35;;
32399;SDS011;45045;45.440;9.178;2023-02-16T14:21:36;15.98;;;12.75;;
32399;SDS011;45045;45.440;9.178;2023-02-16T14:24:12;14.95;;;12.75;;
32399;SDS011;45045;45.440;9.178;2023-02-16T14:26:54;13.80;;;11.38;;
32399;SDS011;45045;45.440;9.178;2023-02-16T14:30:33;12.10;;;9.75;;
32399;SDS011;45045;45.440;9.178;2023-02-16T14:32:42;13.88;;;9.55;;
32399;SDS011;45045;45.440;9.178;2023-02-16T14:35:28;14.25;;;10.57;;
32399;SDS011;45045;45.440;9.178;2023-02-16T14:38:01;14.20;;;9.27;;
32399;SDS011;45045;45.440;9.178;2023-02-16T14:40:54;13.57;;;9.60;;
32399;SDS011;45045;45.440;9.178;2023-02-16T14:43:44;15.10;;;9.63;;
32399;SDS011;45045;45.440;9.178;2023-02-16T14:58:43;11.80;;;8.32;;
32399;SDS011;45045;45.440;9.178;2023-02-16T15:01:42;10.38;;;7.60;;
32399;SDS011;45045;45.440;9.178;2023-02-16T15:04:11;11.60;;;7.80;;
32399;SDS011;45045;45.440;9.178;2023-02-16T15:13:26;9.60;;;6.60;;
32399;SDS011;45045;45.440;9.178;2023-02-16T15:16:05;9.23;;;5.45;;
32399;SDS011;45045;45.440;9.178;2023-02-16T15:18:41;8.45;;;4.93;;
32399;SDS011;45045;45.440;9.178;2023-02-16T15:21:28;8.40;;;5.00;;
32399;SDS011;45045;45.440;9.178;2023-02-16T15:24:00;7.70;;;5.00;;
32399;SDS011;45045;45.440;9.178;2023-02-16T15:26:27;6.60;;;4.88;;
32399;SDS011;45045;45.440;9.178;2023-02-16T15:28:59;9.00;;;4.50;;
32399;SDS011;45045;45.440;9.178;2023-02-16T15:31:37;6.40;;;4.28;;
32399;SDS011;45045;45.440;9.178;2023-02-16T15:34:30;8.13;;;4.80;;
32399;SDS011;45045;45.440;9.178;2023-02-16T15:37:00;8.07;;;4.13;;
32399;SDS011;45045;45.440;9.178;2023-02-16T15:39:43;8.32;;;4.55;;
32399;SDS011;45045;45.440;9.178;2023-02-16T15:42:19;8.00;;;3.60;;
32399;SDS011;45045;45.440;9.178;2023-02-16T15:44:49;8.25;;;4.10;;
32399;SDS011;45045;45.440;9.178;2023-02-16T15:47:23;9.18;;;4.18;;
32399;SDS011;45045;45.440;9.178;2023-02-16T15:49:50;6.28;;;3.70;;
32399;SDS011;45045;45.440;9.178;2023-02-16T15:52:33;7.22;;;4.15;;
32399;SDS011;45045;45.440;9.178;2023-02-16T15:55:01;6.07;;;3.50;;
32399;SDS011;45045;45.440;9.178;2023-02-16T15:57:31;8.05;;;3.90;;
32399;SDS011;45045;45.440;9.178;2023-02-16T16:00:20;7.22;;;3.45;;
32399;SDS011;45045;45.440;9.178;2023-02-16T16:02:50;8.82;;;3.78;;
32399;SDS011;45045;45.440;9.178;2023-02-16T16:05:22;5.68;;;3.28;;
32399;SDS011;45045;45.440;9.178;2023-02-16T16:08:03;7.03;;;3.50;;
32399;SDS011;45045;45.440;9.178;2023-02-16T16:10:35;7.22;;;3.58;;
32399;SDS011;45045;45.440;9.178;2023-02-16T16:13:11;7.97;;;3.30;;
32399;SDS011;45045;45.440;9.178;2023-02-16T16:16:04;7.93;;;3.70;;
32399;SDS011;45045;45.440;9.178;2023-02-16T16:18:38;5.93;;;3.47;;
32399;SDS011;45045;45.440;9.178;2023-02-16T16:23:51;9.35;;;3.80;;
32399;SDS011;45045;45.440;9.178;2023-02-16T16:28:52;8.43;;;3.58;;
32399;SDS011;45045;45.440;9.178;2023-02-16T16:36:33;6.65;;;3.05;;
32399;SDS011;45045;45.440;9.178;2023-02-16T16:47:51;9.90;;;4.30;;
32399;SDS011;45045;45.440;9.178;2023-02-16T16:49:55;7.75;;;3.85;;
32399;SDS011;45045;45.440;9.178;2023-02-16T16:57:51;7.78;;;4.00;;
32399;SDS011;45045;45.440;9.178;2023-02-16T17:00:22;8.50;;;3.58;;
32399;SDS011;45045;45.440;9.178;2023-02-16T17:02:55;7.00;;;3.70;;
32399;SDS011;45045;45.440;9.178;2023-02-16T17:05:24;8.02;;;4.15;;
32399;SDS011;45045;45.440;9.178;2023-02-16T17:07:50;8.13;;;4.15;;
32399;SDS011;45045;45.440;9.178;2023-02-16T17:10:18;7.28;;;4.28;;
32399;SDS011;45045;45.440;9.178;2023-02-16T17:12:55;10.38;;;4.20;;
32399;SDS011;45045;45.440;9.178;2023-02-16T17:18:18;8.88;;;4.20;;
32399;SDS011;45045;45.440;9.178;2023-02-16T17:20:48;8.27;;;5.10;;
32399;SDS011;45045;45.440;9.178;2023-02-16T17:23:15;12.55;;;5.82;;
32399;SDS011;45045;45.440;9.178;2023-02-16T17:25:48;12.40;;;5.70;;
32399;SDS011;45045;45.440;9.178;2023-02-16T17:28:16;26.85;;;21.88;;
32399;SDS011;45045;45.440;9.178;2023-02-16T17:30:43;25.40;;;18.95;;
32399;SDS011;45045;45.440;9.178;2023-02-16T17:33:11;8.52;;;5.72;;
32399;SDS011;45045;45.440;9.178;2023-02-16T17:35:38;14.13;;;10.18;;
32399;SDS011;45045;45.440;9.178;2023-02-16T17:38:11;9.73;;;4.78;;
32399;SDS011;45045;45.440;9.178;2023-02-16T17:41:05;10.15;;;5.63;;
32399;SDS011;45045;45.440;9.178;2023-02-16T17:46:24;29.02;;;19.45;;
32399;SDS011;45045;45.440;9.178;2023-02-16T17:49:10;10.32;;;4.82;;
32399;SDS011;45045;45.440;9.178;2023-02-16T17:51:36;6.88;;;4.18;;
32399;SDS011;45045;45.440;9.178;2023-02-16T17:54:03;8.18;;;4.55;;
32399;SDS011;45045;45.440;9.178;2023-02-16T17:56:39;13.63;;;9.25;;
32399;SDS011;45045;45.440;9.178;2023-02-16T17:59:06;15.20;;;11.23;;
32399;SDS011;45045;45.440;9.178;2023-02-16T18:01:36;7.68;;;4.50;;
32399;SDS011;45045;45.440;9.178;2023-02-16T18:04:02;7.45;;;4.13;;